Time;durP1;ratioP1;P1;durP2;ratioP2;P2;SDS_P1;SDS_P2;PMS_P1;PMS_P2;Temp;Humidity;BMP_temperature;BMP_pressure;BME280_temperature;BME280_humidity;BME280_pressure;Samples;Min_cycle;Max_cycle;Signal;HPM_P1;HPM_P2
2023/01/16 09:09:41;;;;;;;3.45;2.67;;;;;;;4.19;98.05;98330.44;5132380;27;20375;-67
2023/01/16 09:14:51;;;;;;;2.20;1.95;;;;;;;4.31;97.86;98309.44;5132184;27;20043;-67
2023/01/16 09:17:20;;;;;;;2.83;2.60;;;;;;;4.32;98.34;98306.09;5131812;27;20053;-67
2023/01/16 09:19:49;;;;;;;1.20;1.10;;;;;;;4.34;97.99;98300.19;5132308;27;20048;-68
2023/01/16 09:22:18;;;;;;;13.07;4.50;;;;;;;4.30;97.94;98297.63;5124884;27;20043;-67
2023/01/16 09:24:48;;;;;;;2.17;2.00;;;;;;;4.18;98.00;98272.38;5116786;27;20448;-67
2023/01/16 09:27:18;;;;;;;2.80;2.53;;;;;;;4.30;98.12;98279.97;5111167;28;20089;-67
2023/01/16 09:29:47;;;;;;;1.05;1.00;;;;;;;4.28;97.53;98274.06;5111142;28;20055;-68
2023/01/16 09:32:17;;;;;;;3.27;3.07;;;;;;;4.28;97.93;98253.88;5116337;28;20088;-67
2023/01/16 09:34:46;;;;;;;2.47;2.10;;;;;;;4.30;97.40;98244.59;5129587;27;20148;-68
2023/01/16 09:37:15;;;;;;;3.53;2.95;;;;;;;4.39;97.63;98242.13;5131795;27;20080;-67
2023/01/16 09:39:44;;;;;;;0.75;0.75;;;;;;;4.38;97.52;98235.38;5131702;27;20591;-67
2023/01/16 09:45:18;;;;;;;4.30;1.13;;;;;;;4.50;97.51;98235.38;5130120;27;20034;-68
2023/01/16 09:47:51;;;;;;;3.33;1.85;;;;;;;4.57;97.58;98226.94;5131452;27;20495;-68
2023/01/16 09:50:28;;;;;;;1.15;1.13;;;;;;;4.62;97.60;98222.72;5131261;27;20062;-68
2023/01/16 10:01:04;;;;;;;2.20;1.88;;;;;;;4.70;97.14;98178.09;5130978;27;20047;-68
2023/01/16 10:03:34;;;;;;;5.15;2.28;;;;;;;4.72;97.21;98172.19;5131230;27;20043;-68
2023/01/16 10:06:13;;;;;;;2.58;2.40;;;;;;;4.73;97.00;98178.06;5126114;27;20040;-68
2023/01/16 10:08:54;;;;;;;3.78;3.47;;;;;;;4.71;96.86;98159.56;5110003;28;20055;-68
2023/01/16 10:11:29;;;;;;;2.47;1.95;;;;;;;4.73;96.61;98152.81;5109555;28;20114;-68
2023/01/16 10:14:14;;;;;;;1.70;1.60;;;;;;;4.76;96.74;98142.69;5127473;28;20126;-68
2023/01/16 10:16:57;;;;;;;2.70;1.55;;;;;;;4.72;96.54;98125.88;5110145;28;20126;-68
2023/01/16 10:19:51;;;;;;;2.10;1.88;;;;;;;4.78;96.22;98130.91;5105259;28;20048;-67
2023/01/16 10:22:38;;;;;;;3.30;2.78;;;;;;;4.78;96.08;98120.78;5096361;28;20382;-68
2023/01/16 10:25:18;;;;;;;4.30;3.03;;;;;;;4.78;95.93;98115.75;5096561;28;20052;-68
2023/01/16 10:27:56;;;;;;;2.15;1.98;;;;;;;4.72;96.06;98119.16;5100561;28;20050;-68
2023/01/16 10:30:30;;;;;;;1.52;1.42;;;;;;;4.70;95.88;98112.41;5117059;28;20043;-67
2023/01/16 10:33:06;;;;;;;3.60;3.25;;;;;;;4.71;95.91;98111.53;5103967;28;20131;-68
2023/01/16 10:35:39;;;;;;;1.35;1.25;;;;;;;4.69;95.73;98106.50;5106810;28;20043;-68
2023/01/16 10:38:30;;;;;;;2.33;2.20;;;;;;;4.71;95.75;98093.88;5096250;28;20070;-68
2023/01/16 10:41:00;;;;;;;1.73;1.63;;;;;;;4.72;95.41;98091.34;5096430;28;20481;-67
2023/01/16 10:52:01;;;;;;;3.20;2.97;;;;;;;4.93;95.19;98070.19;5095967;28;20044;-67
2023/01/16 10:54:29;;;;;;;1.85;1.75;;;;;;;4.99;95.34;98072.69;5096174;28;20138;-67
2023/01/16 10:57:03;;;;;;;2.03;1.73;;;;;;;4.95;95.14;98070.19;5096142;28;20113;-67
2023/01/16 10:59:34;;;;;;;2.92;2.30;;;;;;;4.96;95.10;98064.28;5096148;28;20040;-67
2023/01/16 11:02:17;;;;;;;3.35;2.75;;;;;;;4.93;95.06;98047.44;5096016;28;20075;-67
2023/01/16 11:04:46;;;;;;;11.27;6.60;;;;;;;4.97;94.82;98046.56;5095708;28;20051;-67
2023/01/16 11:07:18;;;;;;;8.85;5.85;;;;;;;4.91;94.89;98041.56;5095426;28;20040;-67
2023/01/16 11:09:47;;;;;;;3.35;2.88;;;;;;;4.87;94.61;98034.00;5095865;28;20148;-67
2023/01/16 11:20:34;;;;;;;1.90;1.75;;;;;;;4.91;94.39;98008.72;5095429;28;20074;-67
2023/01/16 11:23:14;;;;;;;2.72;2.30;;;;;;;4.96;94.10;98006.16;5095306;28;20052;-67
2023/01/16 11:25:44;;;;;;;1.77;1.40;;;;;;;4.97;94.31;97995.19;5095254;28;20048;-67
2023/01/16 11:28:21;;;;;;;3.97;2.00;;;;;;;5.01;94.01;97987.59;5111963;28;20047;-67
2023/01/16 11:30:55;;;;;;;3.10;2.50;;;;;;;5.04;93.92;97985.03;5114316;28;20044;-67
2023/01/16 11:33:29;;;;;;;3.70;2.95;;;;;;;5.06;94.16;97985.84;5115436;28;20048;-67
2023/01/16 11:36:01;;;;;;;1.85;1.73;;;;;;;5.10;93.86;97972.38;5115918;27;20126;-67
2023/01/16 11:38:34;;;;;;;1.20;1.10;;;;;;;5.11;94.12;97974.03;5109512;28;20078;-67
2023/01/16 11:41:07;;;;;;;3.92;3.42;;;;;;;5.11;93.78;97958.84;5104664;28;20096;-68
2023/01/16 11:46:31;;;;;;;1.38;1.27;;;;;;;5.15;93.86;97955.47;5115599;28;20093;-67
2023/01/16 11:49:04;;;;;;;3.83;2.58;;;;;;;5.15;93.78;97950.41;5112825;28;20040;-67
2023/01/16 11:51:38;;;;;;;3.05;2.85;;;;;;;5.17;93.70;97943.66;5115421;28;20122;-67
2023/01/16 11:54:15;;;;;;;2.17;2.08;;;;;;;5.19;93.16;97941.94;5112956;28;20042;-68
2023/01/16 11:56:56;;;;;;;2.08;1.88;;;;;;;5.20;93.59;97937.75;5103461;28;20036;-68
2023/01/16 11:59:44;;;;;;;1.08;1.02;;;;;;;5.18;93.28;97939.44;5094699;28;20468;-67
2023/01/16 12:02:34;;;;;;;1.05;1.05;;;;;;;5.18;93.10;97929.34;5094888;28;20140;-67
2023/01/16 12:08:12;;;;;;;2.85;2.63;;;;;;;5.16;93.35;97911.63;5114820;28;20480;-67
2023/01/16 12:10:50;;;;;;;2.33;1.90;;;;;;;5.18;93.38;97899.81;5113527;28;20048;-67
2023/01/16 12:16:21;;;;;;;16.42;3.10;;;;;;;5.24;93.11;97884.59;5094924;28;20500;-68
2023/01/16 12:19:04;;;;;;;2.28;2.08;;;;;;;5.27;93.22;97878.69;5094199;28;20105;-67
2023/01/16 12:21:40;;;;;;;2.70;2.17;;;;;;;5.27;93.45;97873.63;5094279;28;20444;-67
2023/01/16 12:24:22;;;;;;;6.28;2.92;;;;;;;5.19;93.15;97850.09;5094712;28;20052;-68
2023/01/16 12:27:06;;;;;;;1.08;1.05;;;;;;;5.26;93.02;97862.66;5107153;28;20044;-67
2023/01/16 12:29:48;;;;;;;1.38;1.27;;;;;;;5.26;92.82;97855.06;5114338;28;20039;-67
2023/01/16 12:32:43;;;;;;;2.72;2.47;;;;;;;5.29;92.79;97847.47;5114724;28;20050;-67
2023/01/16 12:35:27;;;;;;;1.85;1.75;;;;;;;5.27;92.94;97836.53;5114735;28;20058;-67
2023/01/16 12:38:11;;;;;;;2.10;1.95;;;;;;;5.26;92.88;97839.91;5114335;28;20100;-67
2023/01/16 12:43:55;;;;;;;1.80;1.38;;;;;;;5.28;93.06;97819.66;5114469;28;20036;-67
2023/01/16 12:46:32;;;;;;;2.28;2.03;;;;;;;5.29;92.71;97821.34;5114530;28;20047;-67
2023/01/16 12:49:17;;;;;;;3.88;2.55;;;;;;;5.28;92.69;97815.44;5113940;28;20040;-68
2023/01/16 12:52:03;;;;;;;1.80;1.70;;;;;;;5.28;93.05;97804.47;5111603;28;20553;-69
2023/01/16 12:54:50;;;;;;;2.00;1.83;;;;;;;5.27;92.86;97798.59;5097114;28;20047;-68
2023/01/16 12:57:38;;;;;;;1.42;1.33;;;;;;;5.28;92.46;97790.16;5110646;28;20126;-68
2023/01/16 13:00:12;;;;;;;4.63;2.38;;;;;;;5.28;92.83;97780.03;5114488;28;20039;-67
2023/01/16 13:02:45;;;;;;;2.97;2.67;;;;;;;5.29;93.01;97776.66;5114072;28;20101;-68
2023/01/16 13:05:18;;;;;;;9.85;4.03;;;;;;;5.29;92.80;97771.59;5111156;28;20048;-68
2023/01/16 13:07:53;;;;;;;0.90;0.88;;;;;;;5.28;92.99;97774.13;5102589;28;20155;-68
2023/01/16 13:16:00;;;;;;;1.75;1.65;;;;;;;5.26;92.91;97750.56;5113871;28;20092;-68
2023/01/16 13:18:34;;;;;;;1.98;1.85;;;;;;;5.20;92.70;97751.50;5114184;28;20048;-68
2023/01/16 13:21:10;;;;;;;3.47;0.73;;;;;;;5.25;92.59;97754.81;5113745;28;20040;-68
2023/01/16 13:23:44;;;;;;;0.55;0.55;;;;;;;5.24;91.98;97749.75;5113821;28;20051;-68
2023/01/16 13:26:20;;;;;;;;;;;;;;;5.20;91.87;97750.63;5114187;28;20047;-68
2023/01/16 13:28:54;;;;;;;1.40;1.30;;;;;;;5.19;91.54;97743.91;5114105;28;19936;-68
2023/01/16 13:31:33;;;;;;;0.88;0.88;;;;;;;5.20;91.21;97741.38;5111727;28;20044;-68
2023/01/16 13:34:11;;;;;;;2.40;2.25;;;;;;;5.20;91.16;97736.31;5113658;28;20048;-68
2023/01/16 13:37:17;;;;;;;1.00;1.00;;;;;;;5.20;90.65;97736.31;5113756;28;20067;-68
2023/01/16 13:40:06;;;;;;;0.88;0.88;;;;;;;5.21;90.57;97722.81;5113626;28;20031;-68
2023/01/16 13:42:41;;;;;;;1.02;1.00;;;;;;;5.21;90.26;97722.81;5093884;28;20076;-68
2023/01/16 13:48:05;;;;;;;0.85;0.85;;;;;;;5.16;89.61;97714.44;5113930;28;20063;-68
2023/01/16 13:50:36;;;;;;;1.15;1.05;;;;;;;5.15;89.60;97710.25;5113508;28;20122;-68
2023/01/16 13:53:09;;;;;;;0.88;0.88;;;;;;;5.16;89.21;97706.84;5113541;28;20058;-68
2023/01/16 13:55:42;;;;;;;0.57;0.57;;;;;;;5.07;88.86;97685.88;5115759;28;20092;-68
2023/01/16 13:58:18;;;;;;;0.70;0.70;;;;;;;5.15;88.73;97695.06;5117007;28;20054;-68
2023/01/16 14:00:48;;;;;;;0.70;0.70;;;;;;;5.13;88.54;97683.31;5115730;28;20035;-68
2023/01/16 14:03:21;;;;;;;0.88;0.88;;;;;;;5.13;88.65;97676.56;5114418;28;20492;-68
2023/01/16 14:05:54;;;;;;;1.33;1.23;;;;;;;5.13;88.18;97678.25;5116426;28;20075;-68
2023/01/16 14:11:29;;;;;;;0.43;0.43;;;;;;;5.12;88.01;97659.72;5113222;28;20046;-69
2023/01/16 14:16:30;;;;;;;0.40;0.40;;;;;;;5.09;88.15;97657.22;5116898;28;20096;-69
2023/01/16 14:17:10;;;;;;;0.85;0.85;;;;;;;5.02;87.85;97650.56;5108406;28;20036;-69
2023/01/16 14:19:41;;;;;;;;;;;;;;;5.03;87.95;97647.19;5113707;28;20071;-69
2023/01/16 14:24:59;;;;;;;0.77;0.77;;;;;;;4.97;87.63;97621.97;5096575;28;20094;-68
2023/01/16 14:27:33;;;;;;;0.65;0.65;;;;;;;4.98;87.82;97622.81;5096745;28;20040;-68
2023/01/16 14:30:04;;;;;;;0.32;0.32;;;;;;;4.98;87.64;97623.66;5096361;28;20044;-68
2023/01/16 14:32:37;;;;;;;0.43;0.43;;;;;;;4.95;87.46;97618.63;5096162;28;20048;-68
2023/01/16 14:35:15;;;;;;;0.50;0.50;;;;;;;4.93;86.81;97614.44;5096245;28;20044;-68
2023/01/16 14:37:54;;;;;;;0.80;0.80;;;;;;;4.88;87.43;97595.97;5104436;28;20040;-68
2023/01/16 14:55:13;;;;;;;1.17;0.93;;;;;;;4.90;87.14;97594.25;5116896;28;20488;-68
2023/01/16 14:57:44;;;;;;;0.50;0.50;;;;;;;4.89;86.43;97578.28;5116536;28;20468;-68
2023/01/16 15:00:21;;;;;;;2.30;1.08;;;;;;;4.88;86.54;97571.53;5116568;28;20054;-67
2023/01/16 15:02:54;;;;;;;2.28;2.08;;;;;;;4.88;86.33;97569.03;5116123;28;20047;-68
2023/01/16 15:05:49;;;;;;;0.50;0.50;;;;;;;4.89;86.27;97557.22;5116068;28;20056;-68
2023/01/16 15:08:25;;;;;;;1.35;1.25;;;;;;;4.85;86.48;97541.25;5115746;28;20044;-68
2023/01/16 15:10:55;;;;;;;1.08;0.98;;;;;;;4.86;86.42;97542.94;5116001;28;20043;-68
2023/01/16 15:13:26;;;;;;;0.43;0.43;;;;;;;4.91;86.44;97545.41;5115950;28;20051;-68
2023/01/16 15:16:00;;;;;;;0.50;0.50;;;;;;;4.92;86.37;97532.75;5115958;28;20050;-68
2023/01/16 15:24:04;;;;;;;1.08;1.05;;;;;;;4.99;86.25;97518.34;5115662;28;20439;-68
2023/01/16 15:26:52;;;;;;;0.88;0.88;;;;;;;5.02;86.25;97516.59;5115697;28;20044;-67
2023/01/16 15:29:36;;;;;;;0.70;0.70;;;;;;;5.06;86.30;97525.00;5115720;28;20130;-67
2023/01/16 15:32:17;;;;;;;0.93;0.93;;;;;;;5.07;86.36;97512.31;5115886;28;20043;-67
2023/01/16 15:34:48;;;;;;;0.63;0.63;;;;;;;5.08;86.33;97503.91;5115848;28;20036;-68
2023/01/16 15:37:23;;;;;;;0.70;0.70;;;;;;;5.08;86.22;97503.91;5115511;28;20075;-68
2023/01/16 15:39:54;;;;;;;0.60;0.60;;;;;;;5.06;86.30;97492.94;5115746;28;20404;-68
2023/01/16 15:48:21;;;;;;;1.00;0.93;;;;;;;5.07;86.41;97476.94;5115237;28;20054;-68
2023/01/16 15:50:57;;;;;;;0.20;0.20;;;;;;;5.08;86.50;97476.09;5114477;28;20074;-68
2023/01/16 15:53:32;;;;;;;0.68;0.68;;;;;;;5.09;86.34;97475.22;5115187;28;20052;-68
2023/01/16 15:56:05;;;;;;;0.40;0.40;;;;;;;5.09;86.08;97480.28;5115463;28;20074;-67
2023/01/16 15:58:37;;;;;;;0.30;0.30;;;;;;;5.09;86.21;97475.22;5115459;28;20071;-67
2023/01/16 16:01:26;;;;;;;0.40;0.40;;;;;;;5.09;85.97;97477.75;5115386;28;20042;-68
2023/01/16 16:03:58;;;;;;;0.65;0.65;;;;;;;5.08;86.29;97470.19;5115062;28;20047;-68
2023/01/16 16:06:30;;;;;;;2.53;1.17;;;;;;;5.09;86.03;97460.03;5114912;28;20055;-68
2023/01/16 16:08:59;;;;;;;0.40;0.40;;;;;;;5.07;86.09;97463.44;5114700;28;20056;-67
2023/01/16 16:19:41;;;;;;;0.82;0.60;;;;;;;5.10;85.39;97465.94;5114695;28;20089;-68
2023/01/16 16:24:50;;;;;;;0.90;0.90;;;;;;;5.10;85.52;97456.69;5113739;28;20073;-68
2023/01/16 16:27:22;;;;;;;0.30;0.30;;;;;;;5.08;85.37;97450.81;5114894;27;20125;-68
2023/01/16 16:29:51;;;;;;;0.40;0.40;;;;;;;5.10;85.28;97451.63;5115183;28;20325;-68
2023/01/16 16:32:21;;;;;;;0.50;0.50;;;;;;;5.09;85.19;97449.94;5114544;28;20076;-68
2023/01/16 16:34:55;;;;;;;0.30;0.30;;;;;;;5.06;85.30;97449.97;5114446;28;20058;-68
2023/01/16 16:37:26;;;;;;;1.25;0.47;;;;;;;5.07;85.41;97454.19;5114384;28;20039;-68
2023/01/16 16:40:03;;;;;;;3.50;2.40;;;;;;;5.04;85.32;97446.66;5114328;28;20054;-68
2023/01/16 16:42:55;;;;;;;0.30;0.30;;;;;;;5.04;85.27;97455.94;5114685;28;20135;-69
2023/01/16 16:45:33;;;;;;;0.50;0.50;;;;;;;5.04;85.16;97445.84;5111836;28;20134;-68
2023/01/16 16:48:24;;;;;;;0.30;0.30;;;;;;;5.03;85.48;97442.47;5114392;28;20055;-69
2023/01/16 16:51:17;;;;;;;1.25;1.17;;;;;;;5.03;85.38;97437.41;5114153;28;20093;-68
2023/01/16 16:53:48;;;;;;;0.40;0.40;;;;;;;4.99;85.63;97423.13;5114357;28;20416;-68
2023/01/16 16:56:24;;;;;;;0.50;0.50;;;;;;;4.99;85.29;97420.59;5114490;28;20078;-69
2023/01/16 16:58:54;;;;;;;0.40;0.40;;;;;;;5.01;85.30;97421.44;5112934;28;20126;-69
2023/01/16 17:01:39;;;;;;;0.40;0.40;;;;;;;4.97;85.59;97407.16;5114370;28;20093;-68
2023/01/16 17:04:17;;;;;;;0.95;0.95;;;;;;;4.97;85.80;97409.69;5114096;28;20043;-68
2023/01/16 17:06:47;;;;;;;0.95;0.77;;;;;;;4.84;84.78;97387.16;5113111;28;20068;-66
2023/01/16 17:09:17;;;;;;;0.30;0.30;;;;;;;4.84;85.27;97403.16;5113696;28;20481;-67
2023/01/16 17:11:47;;;;;;;0.55;0.55;;;;;;;4.83;85.55;97396.44;5114187;28;20040;-67
2023/01/16 17:14:17;;;;;;;0.30;0.30;;;;;;;4.78;85.32;97393.13;5114318;28;20123;-67
2023/01/16 17:16:46;;;;;;;0.40;0.40;;;;;;;4.79;85.17;97389.75;5114250;28;20065;-68
2023/01/16 17:19:19;;;;;;;2.30;1.20;;;;;;;4.83;85.44;97385.47;5113898;28;20051;-68
2023/01/16 17:21:48;;;;;;;8.63;1.13;;;;;;;4.83;85.54;97386.31;5113950;28;20048;-68
2023/01/16 17:24:19;;;;;;;0.60;0.60;;;;;;;4.80;85.29;97381.31;5113792;28;20088;-67
2023/01/16 17:26:48;;;;;;;1.98;1.67;;;;;;;4.70;85.46;97380.59;5113904;28;20055;-67
2023/01/16 17:29:19;;;;;;;1.20;1.10;;;;;;;4.70;85.69;97374.75;5114047;28;20043;-67
2023/01/16 17:31:49;;;;;;;1.23;1.13;;;;;;;4.70;85.30;97385.66;5117885;28;20036;-67
2023/01/16 17:34:20;;;;;;;0.57;0.57;;;;;;;4.72;85.43;97383.97;5117895;28;20479;-67
2023/01/16 17:36:50;;;;;;;0.40;0.40;;;;;;;4.68;85.51;97381.50;5117902;28;20071;-67
2023/01/16 17:39:20;;;;;;;1.30;1.20;;;;;;;4.66;85.61;97380.69;5118039;28;20052;-67
2023/01/16 17:47:09;;;;;;;0.40;0.40;;;;;;;4.64;84.87;97370.63;5117980;28;20491;-67
2023/01/16 17:50:20;;;;;;;0.73;0.73;;;;;;;4.67;84.81;97362.16;5117712;28;20051;-68
2023/01/16 17:52:27;;;;;;;0.60;0.60;;;;;;;4.63;85.17;97368.13;5117300;28;20040;-67
2023/01/16 17:57:34;;;;;;;0.85;0.85;;;;;;;4.59;85.39;97367.31;5118126;28;20055;-68
2023/01/16 18:00:05;;;;;;;1.85;1.23;;;;;;;4.34;85.20;97320.56;5117384;28;20493;-66
2023/01/16 18:02:34;;;;;;;0.60;0.60;;;;;;;4.55;85.22;97352.22;5117595;28;20043;-67
2023/01/16 18:05:03;;;;;;;0.50;0.50;;;;;;;4.53;85.44;97351.44;5117322;27;20044;-67
2023/01/16 18:07:33;;;;;;;0.95;0.93;;;;;;;4.50;85.30;97351.47;5117394;28;20600;-68
2023/01/16 18:10:02;;;;;;;0.50;0.50;;;;;;;4.48;85.63;97348.13;5117293;28;20055;-67
2023/01/16 18:17:49;;;;;;;0.60;0.60;;;;;;;4.39;85.90;97338.16;5116203;28;20039;-66
2023/01/16 18:20:19;;;;;;;0.70;0.70;;;;;;;4.32;85.71;97322.25;5117329;28;20043;-66
2023/01/16 18:22:48;;;;;;;;;;;;;;;4.35;86.15;97326.44;5117696;28;20058;-65
2023/01/16 18:25:16;;;;;;;0.75;0.75;;;;;;;4.34;86.13;97314.69;5117182;28;19969;-66
2023/01/16 18:27:45;;;;;;;0.33;0.33;;;;;;;4.33;86.17;97311.31;5117013;28;20043;-66
2023/01/16 18:30:15;;;;;;;0.35;0.35;;;;;;;4.29;86.65;97301.28;5116846;28;20163;-66
2023/01/16 18:32:44;;;;;;;0.70;0.70;;;;;;;4.29;86.37;97302.13;5116780;28;20047;-66
2023/01/16 18:35:13;;;;;;;0.40;0.40;;;;;;;4.30;86.92;97297.88;5116985;28;20496;-67
2023/01/16 19:01:54;;;;;;;1.70;1.38;;;;;;;4.29;87.13;97306.34;5116706;28;20036;-66
2023/01/16 19:02:41;;;;;;;3.67;1.70;;;;;;;4.44;88.14;97258.16;5102524;28;20101;-67
2023/01/16 19:05:10;;;;;;;1.23;1.13;;;;;;;4.42;88.32;97250.56;5116553;28;20054;-66
2023/01/16 19:07:46;;;;;;;1.92;1.83;;;;;;;4.43;88.43;97253.94;5115880;28;20039;-68
2023/01/16 19:10:18;;;;;;;0.65;0.65;;;;;;;4.43;88.19;97243.84;5116172;28;20047;-66
2023/01/16 19:12:49;;;;;;;2.58;1.90;;;;;;;4.41;88.47;97246.41;5116270;28;20504;-66
2023/01/16 19:15:19;;;;;;;1.00;1.00;;;;;;;4.38;89.00;97246.44;5116073;28;20569;-66
2023/01/16 19:17:50;;;;;;;1.33;1.25;;;;;;;4.43;89.00;97231.22;5116287;28;20408;-67
2023/01/16 19:20:19;;;;;;;1.00;1.00;;;;;;;4.45;88.72;97242.13;5116007;28;20066;-66
2023/01/16 19:22:49;;;;;;;7.45;1.60;;;;;;;4.47;89.11;97226.09;5116105;28;20043;-67
2023/01/16 19:25:17;;;;;;;0.80;0.80;;;;;;;4.51;89.47;97221.84;5115818;28;20085;-66
2023/01/16 19:27:46;;;;;;;0.57;0.57;;;;;;;4.53;89.52;97220.13;5115817;27;20119;-67
2023/01/16 19:30:15;;;;;;;0.77;0.77;;;;;;;4.52;89.09;97233.59;5115700;28;20119;-66
2023/01/16 19:32:46;;;;;;;1.30;1.20;;;;;;;4.51;89.20;97237.78;5115507;28;20052;-66
2023/01/16 19:35:17;;;;;;;0.60;0.60;;;;;;;4.48;89.30;97252.19;5115963;28;20370;-67
2023/01/16 19:37:46;;;;;;;0.40;0.40;;;;;;;4.49;89.50;97248.78;5115619;28;20069;-67
2023/01/16 19:40:16;;;;;;;0.47;0.47;;;;;;;4.50;89.43;97245.41;5115827;28;20039;-66
2023/01/16 19:48:01;;;;;;;0.50;0.50;;;;;;;4.47;89.80;97235.34;5115430;28;20040;-66
2023/01/16 19:50:33;;;;;;;1.52;1.42;;;;;;;4.45;89.82;97237.06;5115268;28;20286;-66
2023/01/16 19:53:06;;;;;;;0.60;0.60;;;;;;;4.44;89.75;97236.22;5114565;28;20046;-66
2023/01/16 19:55:36;;;;;;;1.33;1.23;;;;;;;4.46;89.73;97233.69;5115230;28;20515;-66
2023/01/16 19:58:05;;;;;;;1.42;1.33;;;;;;;4.47;90.65;97226.09;5115758;28;20039;-66
2023/01/16 20:00:34;;;;;;;0.77;0.77;;;;;;;4.48;89.96;97221.88;5113967;28;20135;-66
2023/01/16 20:03:03;;;;;;;;;;;;;;;4.46;90.26;97216.03;5115405;28;20048;-65
2023/01/16 20:05:33;;;;;;;1.25;1.20;;;;;;;4.44;90.35;97217.75;5115611;28;19980;-66
2023/01/16 20:08:02;;;;;;;0.70;0.70;;;;;;;4.43;90.80;97216.91;5114734;28;20062;-66
2023/01/16 20:10:31;;;;;;;1.47;1.33;;;;;;;4.45;91.14;97214.34;5115297;27;20047;-65
2023/01/16 20:13:00;;;;;;;0.88;0.88;;;;;;;4.47;91.30;97222.72;5114796;28;20284;-66
2023/01/16 20:15:28;;;;;;;6.50;2.93;;;;;;;4.45;91.05;97219.41;5114745;28;20051;-66
2023/01/16 20:17:58;;;;;;;2.00;1.83;;;;;;;4.44;91.39;97210.19;5114774;28;20109;-65
2023/01/16 20:20:26;;;;;;;1.02;1.00;;;;;;;4.43;91.45;97208.50;5115046;28;20554;-66
2023/01/16 20:22:57;;;;;;;0.40;0.40;;;;;;;4.43;91.87;97203.44;5115035;28;20039;-65
2023/01/16 20:25:25;;;;;;;1.23;1.00;;;;;;;4.42;91.89;97211.88;5114623;28;20071;-66
2023/01/16 20:27:54;;;;;;;0.77;0.77;;;;;;;4.42;91.53;97207.66;5114638;28;20044;-65
2023/01/16 20:33:08;;;;;;;0.85;0.85;;;;;;;4.43;92.19;97211.03;5114125;28;20089;-66
2023/01/16 20:35:37;;;;;;;0.60;0.60;;;;;;;4.44;92.18;97205.13;5114767;28;20455;-64
2023/01/16 20:38:07;;;;;;;0.53;0.53;;;;;;;4.43;92.43;97205.97;5114589;28;20486;-65
2023/01/16 20:40:36;;;;;;;0.93;0.93;;;;;;;4.44;92.45;97212.69;5114759;28;20462;-65
2023/01/16 20:48:23;;;;;;;0.57;0.57;;;;;;;4.42;92.28;97227.00;5114672;28;20497;-65
2023/01/16 20:50:53;;;;;;;1.45;1.35;;;;;;;4.44;92.45;97227.84;5114559;28;20431;-65
2023/01/16 20:53:23;;;;;;;1.60;1.42;;;;;;;4.44;92.56;97230.38;5114112;28;20088;-65
2023/01/16 20:55:52;;;;;;;9.85;2.15;;;;;;;4.44;92.60;97233.72;5114190;28;20051;-66
2023/01/16 20:58:21;;;;;;;1.75;1.65;;;;;;;4.45;92.80;97232.88;5114143;28;20048;-66
2023/01/16 21:00:57;;;;;;;0.88;0.88;;;;;;;4.47;93.19;97227.78;5114118;28;20092;-66
2023/01/16 21:03:26;;;;;;;1.25;1.15;;;;;;;4.45;92.88;97230.34;5114262;28;20052;-65
2023/01/16 21:05:55;;;;;;;0.93;0.93;;;;;;;4.44;93.05;97210.19;5114228;28;20036;-66
2023/01/16 21:08:26;;;;;;;1.08;1.05;;;;;;;4.44;93.00;97205.13;5113811;28;20059;-66
2023/01/16 21:10:54;;;;;;;1.33;1.23;;;;;;;4.43;93.25;97203.44;5114665;28;20127;-65
2023/01/16 21:23:58;;;;;;;1.10;1.00;;;;;;;4.38;92.36;97207.72;5114289;28;20048;-66
2023/01/16 21:26:27;;;;;;;0.70;0.70;;;;;;;4.38;92.10;97212.78;5112969;28;20433;-66
2023/01/16 21:28:56;;;;;;;1.97;1.47;;;;;;;4.36;92.30;97214.50;5113857;28;20071;-66
2023/01/16 21:31:25;;;;;;;1.73;1.60;;;;;;;4.36;91.56;97214.50;5113828;28;20047;-66
2023/01/16 21:33:53;;;;;;;0.97;0.97;;;;;;;4.37;91.95;97213.63;5113745;28;20086;-66
2023/01/16 21:36:22;;;;;;;0.93;0.93;;;;;;;4.33;91.35;97212.03;5113785;28;20044;-66
2023/01/16 21:38:51;;;;;;;0.30;0.30;;;;;;;4.30;91.15;97227.22;5113724;28;20054;-66
2023/01/16 21:41:21;;;;;;;0.60;0.60;;;;;;;4.28;91.19;97222.19;5114087;28;20134;-66
2023/01/16 21:46:32;;;;;;;0.63;0.63;;;;;;;4.28;90.79;97233.97;5114112;28;20054;-66
2023/01/16 21:49:02;;;;;;;0.95;0.95;;;;;;;4.26;90.62;97233.16;5113962;28;20308;-66
2023/01/16 21:51:33;;;;;;;1.40;1.30;;;;;;;4.24;89.88;97233.19;5112710;28;20071;-66
2023/01/16 21:54:02;;;;;;;0.68;0.68;;;;;;;4.22;90.04;97224.81;5113587;28;20097;-66
2023/01/16 21:56:32;;;;;;;0.32;0.32;;;;;;;4.21;90.38;97222.31;5113596;28;20050;-66
2023/01/16 21:59:00;;;;;;;2.05;1.33;;;;;;;4.21;89.97;97222.31;5113872;28;20043;-66
2023/01/16 22:01:29;;;;;;;0.50;0.50;;;;;;;4.20;90.00;97223.19;5113492;28;20067;-66
2023/01/16 22:03:58;;;;;;;0.60;0.60;;;;;;;4.19;90.04;97214.78;5113863;28;20138;-66
2023/01/16 22:06:27;;;;;;;0.70;0.70;;;;;;;4.20;89.98;97210.56;5113541;28;20048;-66
2023/01/16 22:08:56;;;;;;;0.38;0.38;;;;;;;4.19;89.77;97221.50;5113270;28;20100;-66
2023/01/16 22:19:28;;;;;;;0.55;0.55;;;;;;;4.15;89.40;97180.31;5117471;28;20140;-67
2023/01/16 22:21:58;;;;;;;1.52;0.90;;;;;;;4.19;89.38;97186.16;5117284;28;20401;-66
2023/01/16 22:24:28;;;;;;;1.05;0.98;;;;;;;4.18;89.62;97187.00;5117369;28;20397;-66
2023/01/16 22:26:57;;;;;;;1.25;1.17;;;;;;;4.20;89.59;97192.91;5116952;28;20046;-67
2023/01/16 22:29:27;;;;;;;1.70;1.13;;;;;;;4.20;89.21;97185.31;5116918;28;20048;-66
2023/01/16 22:31:57;;;;;;;1.17;1.10;;;;;;;4.20;89.47;97185.31;5116798;28;20584;-66
2023/01/16 22:34:25;;;;;;;1.63;1.08;;;;;;;4.18;89.46;97189.53;5116737;28;20071;-66
2023/01/16 22:36:54;;;;;;;0.50;0.50;;;;;;;4.18;89.26;97187.84;5116800;28;20366;-66
2023/01/16 22:39:23;;;;;;;0.80;0.80;;;;;;;4.19;89.56;97188.69;5116715;28;20040;-66
2023/01/16 22:41:51;;;;;;;1.55;1.05;;;;;;;4.19;89.46;97183.66;5116699;28;20044;-67
2023/01/16 22:47:01;;;;;;;0.85;0.85;;;;;;;4.22;89.35;97183.59;5116653;28;20059;-66
2023/01/16 22:49:30;;;;;;;0.75;0.75;;;;;;;4.21;89.30;97186.97;5115437;28;20094;-66
2023/01/16 22:51:59;;;;;;;1.75;1.65;;;;;;;4.23;89.71;97185.25;5116515;28;20493;-67
2023/01/16 22:54:28;;;;;;;0.80;0.80;;;;;;;4.24;89.79;97172.63;5116612;28;20120;-67
2023/01/16 22:56:56;;;;;;;1.52;1.42;;;;;;;4.27;89.56;97179.31;5116401;28;20063;-66
2023/01/16 22:59:25;;;;;;;1.80;1.70;;;;;;;4.25;89.68;97181.03;5116702;28;20040;-65
2023/01/16 23:01:54;;;;;;;0.73;0.73;;;;;;;4.28;89.96;97178.44;5116329;28;20065;-65
2023/01/16 23:04:24;;;;;;;0.63;0.63;;;;;;;4.30;89.23;97172.50;5116220;28;20573;-66
2023/01/16 23:06:53;;;;;;;0.57;0.57;;;;;;;4.33;89.14;97181.72;5116250;28;20577;-66
2023/01/16 23:09:22;;;;;;;2.13;1.93;;;;;;;4.31;88.83;97175.88;5115935;28;20457;-67
2023/01/16 23:11:52;;;;;;;1.45;1.27;;;;;;;4.38;89.28;97174.91;5116111;28;20043;-67
2023/01/16 23:14:23;;;;;;;0.80;0.80;;;;;;;4.36;88.83;97169.91;5115983;27;20039;-67
2023/01/16 23:16:54;;;;;;;1.85;1.52;;;;;;;4.38;88.91;97172.41;5116358;28;20069;-66
2023/01/16 23:19:26;;;;;;;0.65;0.65;;;;;;;4.38;88.90;97172.41;5114997;28;20047;-67
2023/01/16 23:21:56;;;;;;;0.57;0.57;;;;;;;4.37;88.92;97176.59;5115001;28;20040;-66
2023/01/16 23:24:27;;;;;;;0.98;0.95;;;;;;;4.41;88.55;97175.72;5116251;28;20040;-66
2023/01/16 23:26:57;;;;;;;0.70;0.70;;;;;;;4.42;88.64;97176.53;5115834;28;20160;-66
2023/01/16 23:29:26;;;;;;;2.53;1.48;;;;;;;4.45;88.79;97181.53;5115783;28;20062;-66
2023/01/16 23:31:55;;;;;;;1.50;1.40;;;;;;;4.47;88.70;97169.69;5115721;27;20519;-66
2023/01/16 23:34:26;;;;;;;0.60;0.60;;;;;;;4.44;88.47;97164.72;5115552;28;20561;-65
2023/01/16 23:36:56;;;;;;;1.35;1.25;;;;;;;4.44;88.80;97174.81;5116834;28;20271;-66
2023/01/16 23:39:26;;;;;;;1.38;1.27;;;;;;;4.44;88.59;97178.16;5115887;28;20146;-66
2023/01/16 23:44:35;;;;;;;1.10;1.10;;;;;;;4.45;88.76;97177.31;5115563;27;20093;-66
2023/01/16 23:47:09;;;;;;;1.00;0.98;;;;;;;4.47;88.65;97179.81;5115652;28;20522;-66
2023/01/16 23:49:42;;;;;;;1.08;1.08;;;;;;;4.48;88.72;97181.47;5115439;28;20051;-66
2023/01/16 23:52:13;;;;;;;0.32;0.32;;;;;;;4.50;88.40;97179.75;5115669;27;20496;-66
2023/01/16 23:54:42;;;;;;;0.85;0.85;;;;;;;4.52;88.95;97183.09;5115244;28;20039;-65
2023/01/16 23:57:13;;;;;;;2.33;1.83;;;;;;;4.53;88.48;97184.75;5115470;27;20036;-66
2023/01/16 23:59:42;;;;;;;1.42;1.10;;;;;;;4.54;88.64;97181.38;5115250;28;20127;-66
